AirNav   Air Wisconsin pilot careers
 
 1643 users online  

7B4 Miller Farm Landing Strip
Baltimore, Ohio, USA

GOING TO BALTIMORE?


FAA INFORMATION EFFECTIVE 21 JUNE 2018

Location

FAA Identifier: 7B4
Lat/Long: 39-53-04.2290N / 082-35-20.5840W
39-53.070483N / 082-35.343067W
39.8845081 / -82.5890511
(estimated)
Elevation: 930 ft. / 283 m (estimated)
Variation: 05W (1985)
From city: 3 miles NE of BALTIMORE, OH
Time zone: UTC -4 (UTC -5 during Standard Time)
Zip code: 43105

Airport Operations

Airport use: Open to the public
Activation date: 06/1963
Control tower: no
ARTCC: INDIANAPOLIS CENTER
FSS: DAYTON FLIGHT SERVICE STATION
NOTAMs facility: DAY (NOTAM-D service available)
Attendance: SUNRISE-SUNSET
DAYLIGHT HRS ONLY.
Wind indicator: lighted
Segmented circle: no
Lights: AIRPORT LIGHTING AVAILABLE ON REQUEST, CONTACT APRT MGR

Airport Communications

CTAF: 122.9
WX ASOS at LHQ (8 nm S): 118.375 (740-681-1097)
WX ASOS at VTA (10 nm NE): 121.125 (740-522-1066)
WX ASOS at CMH (15 nm NW): 124.6 (614-338-4083)
WX AWOS-3 at LCK (16 nm W): 132.750 (614-492-2441)

Nearby radio navigation aids

VOR radial/distance  VOR name  Freq  Var
APEr186/16.0APPLETON VORTAC116.7006W
XUBr045/(28.0)YELLOW BUD VOR112.5005W
ZZVr270/32.2ZANESVILLE VOR/DME111.4006W

 
NDB name  Hdg/Dist  Freq  Var  ID
NEWARK220/10.352406WHEH .... . ....
PICKL096/11.437607WLC .-.. -.-.

Airport Services

Parking: hangars
Airframe service: NONE
Powerplant service: NONE

Runway Information

Runway 9/27

Dimensions: 3250 x 50 ft. / 991 x 15 m
Surface: turf, in good condition
Runway edge lights: non-standard
NSTD LIRL; RY ENDS LGTD WITH SPLIT RED & GREEN LGTS & DSPLD THLDS LGDT WITH 1 SPLIT RED & GREEN LGT EACH SIDE OF RY.
RUNWAY 9  RUNWAY 27
Traffic pattern: leftleft
Displaced threshold: 270 ft.
09/27 DSPLCD THLDS MARKED WITH GREEN LGT ATOP YELLOW CONE.
275 ft.
Obstructions: 8 ft. crops
RWY 09 APCH SLOPE 0:1 TO DSPLCD THLD DUE TO +8 FT CROPS 50 FT R & L AT DSPLCD THLD
13 ft. trees, 115 ft. right of centerline
RWY 27 APCH SLOPE 0:1 TO DSPLCD THLD DUE TO +8 FT CROPS 50 FT R & L AT DSPLCD THLD

Airport Ownership and Management from official FAA records

Ownership: Privately-owned
Owner: EDWARD MILLER
455 STEMEN RD NW
BALTIMORE, OH 43105
Phone 614-862-8129
Manager: CLARENCE "BUTCH" PRICE
155 STEMEN RD. NW
BALTIMORE, OH 43105
Phone (740) 862-8422
ADDL CONTACT BUTCH.NANCY@AVOLVE.NET

Airport Operational Statistics

Aircraft based on the field: 2
Single engine airplanes: 2
    
Aircraft operations: avg 29/month *
86% local general aviation
14% transient general aviation
* for 12-month period ending 27 May 2017

Additional Remarks

NO STUDENT OPNS.
RWY 27 +6 TO +13 FT BRUSH/TREES ON RWY END 45 R TO 125 R
OCCASIONAL R/C ACFT OPERATING FM APRT, CTAF MONITORED, OVERFLY FIELD TO ENTER TRAFFIC PATTERN

Instrument Procedures

There are no published instrument procedures at 7B4.

Some nearby airports with instrument procedures:

KLHQ - Fairfield County Airport (8 nm S)
KVTA - Newark-Heath Airport (10 nm NE)
KCMH - John Glenn Columbus International Airport (15 nm NW)
KLCK - Rickenbacker International Airport (16 nm W)
I86 - Perry County Airport (21 nm SE)
 
Loc | Ops | Rwys | IFR | FBO | Links
Com | Nav | Svcs | Stats | Notes

AirNav Hotels Sweepstakes
 
Area around 7B4 (Miller Farm Landing Strip)
 
Road maps at: MapQuest Bing Google
 
Aerial photo
WARNING: Photo may not be current or correct
Aerial photo of 7B4 (Miller Farm Landing Strip)
Photo by Denny Cox
Photo taken 04-Sep-2006
looking east

Do you have a better or more recent aerial photo of Miller Farm Landing Strip that you would like to share? If so, please send us your photo.

 
Sectional chart

 
Airport distance calculator
Flying to Miller Farm Landing Strip? Find the distance to fly.

From to 7B4

Sunrise and sunset
Times for 21-Jun-2018
 Local
(UTC-4)
 Zulu
(UTC)
Morning civil twilight05:3009:30
Sunrise06:0310:03
Sunset21:0101:01
Evening civil twilight21:3401:34

Current date and time
Zulu (UTC)  21-Jun-2018 18:21:38
Local (UTC-4)  21-Jun-2018 14:21:38
 
METAR
KLHQ 
9nm SW 
211753Z AUTO 09008KT 7SM -RA OVC012 22/20 A2982 RMK AO2 RAB53 SLP090 P0000 60000 T02170200 10222 20194 58010
KVTA 
10nm NE 
211754Z AUTO 10007KT 10SM -RA OVC024 23/19 A2981 RMK AO2 SLP089 P0000 60000 T02330189 10239 20189 58011
KCMH 
15nm NW 
211751Z 10008KT 9SM OVC018 23/19 A2979 RMK AO2 SLP083 60000 T02330189 10233 20194 58013
KLCK 
16nm W 
211755Z AUTO 08009KT 2 1/2SM +RA SCT014 BKN019 OVC030 21/20 A2979 RMK AO2 T02110200
TAF
KCMH 
15nm NW 
211734Z 2118/2218 09007KT P6SM -SHRA OVC020 FM212000 11004KT 4SM SHRA VCTS OVC025CB TEMPO 2120/2124 2SM +SHRA BR OVC010 FM220300 10005KT 5SM BR VCSH OVC025 FM220900 13004KT 4SM BR OVC007 FM221300 15005KT 5SM BR OVC015 FM221500 17006KT P6SM VCSH BKN010
KLCK 
16nm W 
211734Z 2118/2218 08007KT P6SM -SHRA OVC020 FM211900 11004KT 4SM SHRA VCTS OVC025CB TEMPO 2119/2123 2SM +SHRA BR OVC010 FM220200 10005KT 5SM BR VCSH OVC025 FM220900 13004KT 3SM BR OVC007 FM221300 15005KT 5SM BR OVC015 FM221500 17006KT P6SM VCSH BKN010
NOTAMs
Click for the latest NOTAMs
NOTAMs are issued by the DoD/FAA and will open in a separate window not controlled by AirNav.

 

 
 

Would you like to see your business listed on this page?

 If your business provides an interesting product or service to pilots, flight crews, aircraft, or users of the Miller Farm Landing Strip, you should consider listing it here.  To start the listing process, click on the button below
 
Add a business
 

Other Pages about Miller Farm Landing Strip

Update a link
 
Copyright © AirNav, LLC. All rights reserved. Privacy Policy  Contact